createdAt,value
2017-12-20T00:00:02.632Z,17.1
2017-12-20T00:01:02.605Z,17.1
2017-12-20T00:02:02.326Z,17.1
2017-12-20T00:03:02.422Z,17.1
2017-12-20T00:04:02.422Z,17.1
2017-12-20T00:05:02.413Z,17.1
2017-12-20T00:06:02.904Z,17.1
2017-12-20T00:07:02.268Z,17.1
2017-12-20T00:08:02.637Z,17.1
2017-12-20T00:09:02.481Z,17.1
2017-12-20T00:10:02.264Z,17.1
2017-12-20T00:11:02.284Z,17.1
2017-12-20T00:12:02.673Z,17.1
2017-12-20T00:13:02.608Z,17.1
2017-12-20T00:14:02.408Z,17.1
2017-12-20T00:15:02.221Z,17.1
2017-12-20T00:16:02.038Z,17.1
2017-12-20T00:17:02.389Z,17.1
2017-12-20T00:18:02.247Z,17.1
2017-12-20T00:19:02.414Z,17
2017-12-20T00:20:02.217Z,17
2017-12-20T00:21:02.233Z,17
2017-12-20T00:22:02.460Z,17.1
2017-12-20T00:23:02.224Z,17
2017-12-20T00:24:02.633Z,17
2017-12-20T00:25:02.484Z,17
2017-12-20T00:26:02.436Z,17
2017-12-20T00:27:02.358Z,17
2017-12-20T00:28:02.458Z,17
2017-12-20T00:29:02.050Z,17
2017-12-20T00:30:02.631Z,17
2017-12-20T00:31:02.786Z,17
2017-12-20T00:32:02.622Z,17
2017-12-20T00:33:02.602Z,16.9
2017-12-20T00:34:02.425Z,17
2017-12-20T00:35:02.635Z,17
2017-12-20T00:36:02.451Z,16.9
2017-12-20T00:37:02.568Z,16.9
2017-12-20T00:38:02.772Z,16.9
2017-12-20T00:39:02.606Z,16.9
2017-12-20T00:40:02.438Z,16.9
2017-12-20T00:41:02.444Z,16.9
2017-12-20T00:42:02.278Z,16.9
2017-12-20T00:43:02.233Z,16.9
2017-12-20T00:44:02.476Z,16.9
2017-12-20T00:45:02.635Z,16.9
2017-12-20T00:46:02.598Z,16.9
2017-12-20T00:47:02.845Z,16.9
2017-12-20T00:48:02.416Z,16.9
2017-12-20T00:49:02.396Z,16.9
2017-12-20T00:50:02.695Z,16.9
2017-12-20T00:51:02.037Z,16.9
2017-12-20T00:52:02.672Z,16.9
2017-12-20T00:53:02.619Z,16.9
2017-12-20T00:54:02.813Z,16.9
2017-12-20T00:55:02.410Z,16.9
2017-12-20T00:56:02.649Z,16.9
2017-12-20T00:57:02.583Z,16.9
2017-12-20T00:58:02.530Z,16.9
2017-12-20T00:59:02.287Z,16.9
2017-12-20T01:00:02.495Z,16.9
2017-12-20T01:01:02.411Z,16.9
2017-12-20T01:02:02.437Z,16.9
2017-12-20T01:03:02.609Z,16.9
2017-12-20T01:04:02.481Z,16.9
2017-12-20T01:05:02.768Z,16.9
2017-12-20T01:06:02.621Z,16.8
2017-12-20T01:07:02.265Z,16.8
2017-12-20T01:08:02.251Z,16.8
2017-12-20T01:09:02.271Z,16.8
2017-12-20T01:10:02.458Z,16.8
2017-12-20T01:11:02.281Z,16.8
2017-12-20T01:12:02.453Z,16.8
2017-12-20T01:13:02.315Z,16.8
2017-12-20T01:14:02.650Z,16.8
2017-12-20T01:15:02.803Z,16.8
2017-12-20T01:16:02.616Z,16.8
2017-12-20T01:17:02.253Z,16.8
2017-12-20T01:18:02.250Z,16.8
2017-12-20T01:19:02.563Z,16.8
2017-12-20T01:20:02.428Z,16.8
2017-12-20T01:21:02.268Z,16.8
2017-12-20T01:22:02.069Z,16.8
2017-12-20T01:23:02.440Z,16.8
2017-12-20T01:24:02.663Z,16.8
2017-12-20T01:25:02.483Z,16.8
2017-12-20T01:26:02.417Z,16.8
2017-12-20T01:27:02.258Z,16.8
2017-12-20T01:28:02.478Z,16.8
2017-12-20T01:29:02.531Z,16.8
2017-12-20T01:30:02.284Z,16.8
2017-12-20T01:31:02.382Z,16.8
2017-12-20T01:32:02.649Z,16.8
2017-12-20T01:33:02.441Z,16.8
2017-12-20T01:34:02.640Z,16.8
2017-12-20T01:35:02.631Z,16.8
2017-12-20T01:36:02.418Z,16.8
2017-12-20T01:37:02.446Z,16.8
2017-12-20T01:38:02.661Z,16.8
2017-12-20T01:39:02.094Z,16.7
2017-12-20T01:40:02.438Z,16.7
2017-12-20T01:41:02.485Z,16.8
2017-12-20T01:42:02.817Z,16.7
2017-12-20T01:43:02.890Z,16.7
2017-12-20T01:44:02.323Z,16.7
2017-12-20T01:45:02.444Z,16.7
2017-12-20T01:46:02.611Z,16.7
2017-12-20T01:47:02.466Z,16.7
2017-12-20T01:48:02.274Z,16.7
2017-12-20T01:49:02.451Z,16.7
2017-12-20T01:50:02.467Z,16.7
2017-12-20T01:51:02.657Z,16.7
2017-12-20T01:52:02.637Z,16.7
2017-12-20T01:53:02.430Z,16.7
2017-12-20T01:54:02.318Z,16.7
2017-12-20T01:55:02.420Z,16.7
2017-12-20T01:56:02.051Z,16.7
2017-12-20T01:57:02.652Z,16.7
2017-12-20T01:58:02.278Z,16.6
2017-12-20T01:59:02.272Z,16.6
2017-12-20T02:00:02.650Z,16.6
2017-12-20T02:01:02.528Z,16.6
2017-12-20T02:02:02.266Z,16.6
2017-12-20T02:03:02.635Z,16.6
2017-12-20T02:04:02.463Z,16.6
2017-12-20T02:05:02.266Z,16.6
2017-12-20T02:06:02.434Z,16.6
2017-12-20T02:07:02.620Z,16.6
2017-12-20T02:08:02.523Z,16.6
2017-12-20T02:09:02.531Z,16.6
2017-12-20T02:10:02.632Z,16.6
2017-12-20T02:11:02.316Z,16.6
2017-12-20T02:12:02.275Z,16.6
2017-12-20T02:13:02.304Z,16.6
2017-12-20T02:14:02.367Z,16.6
2017-12-20T02:15:02.736Z,16.6
2017-12-20T02:16:02.473Z,16.6
2017-12-20T02:17:02.803Z,16.6
2017-12-20T02:18:02.429Z,16.6
2017-12-20T02:19:02.676Z,16.6
2017-12-20T02:20:02.630Z,16.6
2017-12-20T02:21:02.424Z,16.6
2017-12-20T02:22:02.467Z,16.6
2017-12-20T02:23:02.501Z,16.6
2017-12-20T02:24:02.554Z,16.6
2017-12-20T02:25:02.635Z,16.6
2017-12-20T02:26:02.272Z,16.6
2017-12-20T02:27:02.501Z,16.6
2017-12-20T02:28:02.465Z,16.6
2017-12-20T02:29:02.827Z,16.6
2017-12-20T02:30:02.732Z,16.6
2017-12-20T02:31:02.268Z,16.6
2017-12-20T02:32:02.523Z,16.6
2017-12-20T02:33:02.682Z,16.5
2017-12-20T02:34:02.688Z,16.6
2017-12-20T02:35:02.483Z,16.6
2017-12-20T02:36:02.657Z,16.6
2017-12-20T02:37:02.789Z,16.6
2017-12-20T02:38:02.490Z,16.5
2017-12-20T02:39:02.723Z,16.5
2017-12-20T02:40:02.710Z,16.5
2017-12-20T02:41:02.699Z,16.6
2017-12-20T02:42:02.775Z,16.5
2017-12-20T02:43:02.462Z,16.5
2017-12-20T02:44:02.656Z,16.5
2017-12-20T02:45:02.709Z,16.5
2017-12-20T02:46:02.913Z,16.5
2017-12-20T02:47:02.568Z,16.5
2017-12-20T02:48:02.645Z,16.5
2017-12-20T02:49:02.896Z,16.5
2017-12-20T02:50:02.875Z,16.5
2017-12-20T02:51:02.483Z,16.5
2017-12-20T02:52:02.360Z,16.5
2017-12-20T02:53:02.860Z,16.5
2017-12-20T02:54:02.672Z,16.5
2017-12-20T02:55:02.648Z,16.5
2017-12-20T02:56:02.923Z,16.5
2017-12-20T02:57:02.648Z,16.4
2017-12-20T02:58:02.683Z,16.4
2017-12-20T02:59:02.188Z,16.4
2017-12-20T03:00:02.618Z,16.4
2017-12-20T03:01:02.667Z,16.4
2017-12-20T03:02:02.248Z,16.4
2017-12-20T03:03:02.614Z,16.4
2017-12-20T03:04:02.557Z,16.4
2017-12-20T03:05:02.459Z,16.4
2017-12-20T03:06:02.684Z,16.4
2017-12-20T03:07:02.475Z,16.4
2017-12-20T03:08:02.243Z,16.4
2017-12-20T03:09:02.580Z,16.4
2017-12-20T03:10:02.506Z,16.4
2017-12-20T03:11:02.075Z,16.4
2017-12-20T03:12:02.714Z,16.4
2017-12-20T03:13:02.698Z,16.4
2017-12-20T03:14:02.702Z,16.4
2017-12-20T03:15:02.664Z,16.4
2017-12-20T03:16:02.526Z,16.4
2017-12-20T03:17:02.733Z,16.4
2017-12-20T03:18:02.480Z,16.4
2017-12-20T03:19:02.314Z,16.4
2017-12-20T03:20:02.511Z,16.4
2017-12-20T03:21:02.686Z,16.4
2017-12-20T03:22:02.853Z,16.4
2017-12-20T03:23:02.521Z,16.4
2017-12-20T03:24:02.312Z,16.4
2017-12-20T03:25:02.317Z,16.4
2017-12-20T03:26:02.542Z,16.4
2017-12-20T03:27:02.759Z,16.4
2017-12-20T03:28:02.677Z,16.4
2017-12-20T03:29:02.469Z,16.4
2017-12-20T03:30:02.563Z,16.4
2017-12-20T03:31:02.746Z,16.4
2017-12-20T03:32:02.700Z,16.4
2017-12-20T03:33:02.698Z,16.4
2017-12-20T03:34:02.478Z,16.4
2017-12-20T03:35:02.326Z,16.4
2017-12-20T03:36:02.293Z,16.4
2017-12-20T03:37:02.544Z,16.4
2017-12-20T03:38:02.644Z,16.4
2017-12-20T03:39:02.474Z,16.4
2017-12-20T03:40:02.709Z,16.4
2017-12-20T03:41:02.636Z,16.4
2017-12-20T03:42:02.335Z,16.3
2017-12-20T03:43:02.761Z,16.3
2017-12-20T03:44:02.284Z,16.4
2017-12-20T03:45:02.472Z,16.3
2017-12-20T03:46:02.692Z,16.3
2017-12-20T03:47:02.754Z,16.3
2017-12-20T03:48:02.419Z,16.3
2017-12-20T03:49:02.257Z,16.3
2017-12-20T03:50:02.469Z,16.3
2017-12-20T03:51:02.471Z,16.3
2017-12-20T03:52:02.693Z,16.3
2017-12-20T03:53:02.691Z,16.3
2017-12-20T03:54:02.438Z,16.3
2017-12-20T03:55:02.307Z,16.3
2017-12-20T03:56:02.454Z,16.3
2017-12-20T03:57:02.883Z,16.3
2017-12-20T03:58:02.350Z,16.3
2017-12-20T03:59:02.456Z,16.3
2017-12-20T04:00:02.505Z,16.3
2017-12-20T04:01:02.793Z,16.3
2017-12-20T04:02:02.697Z,16.3
2017-12-20T04:03:02.953Z,16.3
2017-12-20T04:04:02.649Z,16.3
2017-12-20T04:05:02.555Z,16.3
2017-12-20T04:06:02.741Z,16.3
2017-12-20T04:07:02.510Z,16.3
2017-12-20T04:08:02.715Z,16.3
2017-12-20T04:09:02.066Z,16.3
2017-12-20T04:10:02.317Z,16.3
2017-12-20T04:11:02.344Z,16.3
2017-12-20T04:12:02.294Z,16.3
2017-12-20T04:13:02.526Z,16.3
2017-12-20T04:14:02.340Z,16.3
2017-12-20T04:15:02.891Z,16.3
2017-12-20T04:16:02.321Z,16.3
2017-12-20T04:17:02.699Z,16.3
2017-12-20T04:18:02.555Z,16.3
2017-12-20T04:19:02.548Z,16.3
2017-12-20T04:20:02.507Z,16.3
2017-12-20T04:21:02.398Z,16.3
2017-12-20T04:22:02.094Z,16.3
2017-12-20T04:23:02.344Z,16.3
2017-12-20T04:24:02.342Z,16.3
2017-12-20T04:25:02.672Z,16.3
2017-12-20T04:26:02.997Z,16.3
2017-12-20T04:27:02.451Z,16.3
2017-12-20T04:28:02.513Z,16.3
2017-12-20T04:29:02.312Z,16.3
2017-12-20T04:30:02.320Z,16.3
2017-12-20T04:31:02.620Z,16.2
2017-12-20T04:32:02.303Z,16.2
2017-12-20T04:33:02.678Z,16.2
2017-12-20T04:34:02.503Z,16.2
2017-12-20T04:35:02.635Z,16.2
2017-12-20T04:36:02.337Z,16.2
2017-12-20T04:37:02.472Z,16.2
2017-12-20T04:38:02.288Z,16.2
2017-12-20T04:39:02.147Z,16.2
2017-12-20T04:40:02.333Z,16.2
2017-12-20T04:41:02.374Z,16.2
2017-12-20T04:42:02.691Z,16.2
2017-12-20T04:43:02.488Z,16.2
2017-12-20T04:44:02.481Z,16.2
2017-12-20T04:45:02.731Z,16.2
2017-12-20T04:46:03.047Z,16.2
2017-12-20T04:47:02.512Z,16.2
2017-12-20T04:48:02.287Z,16.2
2017-12-20T04:49:02.507Z,16.2
2017-12-20T04:50:02.584Z,16.1
2017-12-20T04:51:02.561Z,16.1
2017-12-20T04:52:02.517Z,16.2
2017-12-20T04:53:02.365Z,16.2
2017-12-20T04:54:02.504Z,16.2
2017-12-20T04:55:02.140Z,16.2
2017-12-20T04:56:02.668Z,16.2
2017-12-20T04:57:02.336Z,16.1
2017-12-20T04:58:02.141Z,16.1
2017-12-20T04:59:02.289Z,16.1
2017-12-20T05:00:02.477Z,16.1
2017-12-20T05:01:02.738Z,16.1
2017-12-20T05:02:02.315Z,16.1
2017-12-20T05:03:02.348Z,16.1
2017-12-20T05:04:02.638Z,16.2
2017-12-20T05:05:02.659Z,16.2
2017-12-20T05:06:02.449Z,16.1
2017-12-20T05:07:02.316Z,16.2
2017-12-20T05:08:02.414Z,16.1
2017-12-20T05:09:02.307Z,16.2
2017-12-20T05:10:02.727Z,16.2
2017-12-20T05:11:02.550Z,16.2
2017-12-20T05:12:02.503Z,16.2
2017-12-20T05:13:02.601Z,16.2
2017-12-20T05:14:02.326Z,16.2
2017-12-20T05:15:02.477Z,16.2
2017-12-20T05:16:02.379Z,16.2
2017-12-20T05:17:02.360Z,16.3
2017-12-20T05:18:02.371Z,16.3
2017-12-20T05:19:02.784Z,16.3
2017-12-20T05:20:02.660Z,16.3
2017-12-20T05:21:02.584Z,16.3
2017-12-20T05:22:02.543Z,16.3
2017-12-20T05:23:02.473Z,16.3
2017-12-20T05:24:02.284Z,16.3
2017-12-20T05:25:02.290Z,16.3
2017-12-20T05:26:02.548Z,16.3
2017-12-20T05:27:02.503Z,16.3
2017-12-20T05:28:02.522Z,16.3
2017-12-20T05:29:02.276Z,16.3
2017-12-20T05:30:02.545Z,16.3
2017-12-20T05:31:02.542Z,16.3
2017-12-20T05:32:02.532Z,16.3
2017-12-20T05:33:02.861Z,16.4
2017-12-20T05:34:02.371Z,16.4
2017-12-20T05:35:02.792Z,16.4
2017-12-20T05:36:02.679Z,16.4
2017-12-20T05:37:02.311Z,16.4
2017-12-20T05:38:02.929Z,16.4
2017-12-20T05:39:02.499Z,16.4
2017-12-20T05:40:02.547Z,16.4
2017-12-20T05:41:02.710Z,16.4
2017-12-20T05:42:02.896Z,16.4
2017-12-20T05:43:02.373Z,16.4
2017-12-20T05:44:02.918Z,16.5
2017-12-20T05:45:02.232Z,16.5
2017-12-20T05:46:02.524Z,16.5
2017-12-20T05:47:02.349Z,16.5
2017-12-20T05:48:02.337Z,16.5
2017-12-20T05:49:02.724Z,16.5
2017-12-20T05:50:02.319Z,16.5
2017-12-20T05:51:02.545Z,16.6
2017-12-20T05:52:02.621Z,16.6
2017-12-20T05:53:02.917Z,16.6
2017-12-20T05:54:02.739Z,16.6
2017-12-20T05:55:02.551Z,16.6
2017-12-20T05:56:02.335Z,16.6
2017-12-20T05:57:02.728Z,16.6
2017-12-20T05:58:02.316Z,16.6
2017-12-20T05:59:02.190Z,16.6
2017-12-20T06:00:02.538Z,16.6
2017-12-20T06:01:02.748Z,16.6
2017-12-20T06:02:02.384Z,16.6
2017-12-20T06:03:02.316Z,16.6
2017-12-20T06:04:02.326Z,16.6
2017-12-20T06:05:02.508Z,16.6
2017-12-20T06:06:02.319Z,16.6
2017-12-20T06:07:02.713Z,16.7
2017-12-20T06:08:02.639Z,16.7
2017-12-20T06:09:02.372Z,16.7
2017-12-20T06:10:02.550Z,16.7
2017-12-20T06:11:02.374Z,16.7
2017-12-20T06:12:02.337Z,16.7
2017-12-20T06:13:02.514Z,16.7
2017-12-20T06:14:02.511Z,16.7
2017-12-20T06:15:02.766Z,16.7
2017-12-20T06:16:02.522Z,16.7
2017-12-20T06:17:02.585Z,16.8
2017-12-20T06:18:02.537Z,16.8
2017-12-20T06:19:02.584Z,16.8
2017-12-20T06:20:02.551Z,16.8
2017-12-20T06:21:02.925Z,16.8
2017-12-20T06:22:02.513Z,16.8
2017-12-20T06:23:02.633Z,16.8
2017-12-20T06:24:02.580Z,16.8
2017-12-20T06:25:02.566Z,16.8
2017-12-20T06:26:02.531Z,16.8
2017-12-20T06:27:02.732Z,16.8
2017-12-20T06:28:02.513Z,16.8
2017-12-20T06:29:02.582Z,16.8
2017-12-20T06:30:03.865Z,16.8
2017-12-20T06:31:02.346Z,16.8
2017-12-20T06:32:02.357Z,16.8
2017-12-20T06:33:02.715Z,16.8
2017-12-20T06:34:02.155Z,16.8
2017-12-20T06:35:02.559Z,16.8
2017-12-20T06:36:02.717Z,16.8
2017-12-20T06:37:02.729Z,16.8
2017-12-20T06:38:02.165Z,16.8
2017-12-20T06:39:02.885Z,16.8
2017-12-20T06:40:02.755Z,16.8
2017-12-20T06:41:02.321Z,16.8
2017-12-20T06:42:02.543Z,16.8
2017-12-20T06:43:02.519Z,16.8
2017-12-20T06:44:02.554Z,16.8
2017-12-20T06:45:02.165Z,16.8
2017-12-20T06:46:02.912Z,16.8
2017-12-20T06:47:02.622Z,16.8
2017-12-20T06:48:02.507Z,16.8
2017-12-20T06:49:02.342Z,16.8
2017-12-20T06:50:02.383Z,16.8
2017-12-20T06:51:02.706Z,16.8
2017-12-20T06:52:02.349Z,16.8
2017-12-20T06:53:02.359Z,16.8
2017-12-20T06:54:02.500Z,16.8
2017-12-20T06:55:02.702Z,16.8
2017-12-20T06:56:02.157Z,16.8
2017-12-20T06:57:02.533Z,16.8
2017-12-20T06:58:02.518Z,16.8
2017-12-20T06:59:02.787Z,16.8
2017-12-20T07:00:02.772Z,16.8
2017-12-20T07:01:02.712Z,16.8
2017-12-20T07:02:02.202Z,16.8
2017-12-20T07:03:02.561Z,16.8
2017-12-20T07:04:02.931Z,16.8
2017-12-20T07:05:02.545Z,16.8
2017-12-20T07:06:02.379Z,16.8
2017-12-20T07:07:02.592Z,16.8
2017-12-20T07:08:02.792Z,16.8
2017-12-20T07:09:02.853Z,16.8
2017-12-20T07:10:02.617Z,16.8
2017-12-20T07:11:02.384Z,16.8
2017-12-20T07:12:02.394Z,16.8
2017-12-20T07:13:02.178Z,16.8
2017-12-20T07:14:02.707Z,16.8
2017-12-20T07:15:03.255Z,16.8
2017-12-20T07:16:02.357Z,16.8
2017-12-20T07:17:02.801Z,16.8
2017-12-20T07:18:02.547Z,16.8
2017-12-20T07:19:02.359Z,16.8
2017-12-20T07:20:03.036Z,16.8
2017-12-20T07:21:02.569Z,16.8
2017-12-20T07:22:02.778Z,16.8
2017-12-20T07:23:02.556Z,16.8
2017-12-20T07:24:02.372Z,16.8
2017-12-20T07:25:02.461Z,16.8
2017-12-20T07:26:02.381Z,16.8
2017-12-20T07:27:02.379Z,16.8
2017-12-20T07:28:02.574Z,16.8
2017-12-20T07:29:02.962Z,16.8
2017-12-20T07:30:02.837Z,16.8
2017-12-20T07:31:02.587Z,16.8
2017-12-20T07:32:02.435Z,16.8
2017-12-20T07:33:02.403Z,16.8
2017-12-20T07:34:02.359Z,16.8
2017-12-20T07:35:02.760Z,16.8
2017-12-20T07:36:02.694Z,16.8
2017-12-20T07:37:02.600Z,16.8
2017-12-20T07:38:02.793Z,16.8
2017-12-20T07:39:02.629Z,16.8
2017-12-20T07:40:02.579Z,16.8
2017-12-20T07:41:02.557Z,16.8
2017-12-20T07:42:02.539Z,16.8
2017-12-20T07:43:02.390Z,16.8
2017-12-20T07:44:02.535Z,16.8
2017-12-20T07:45:02.598Z,16.8
2017-12-20T07:46:02.585Z,16.8
2017-12-20T07:47:02.556Z,16.8
2017-12-20T07:48:02.432Z,16.8
2017-12-20T07:49:02.566Z,16.8
2017-12-20T07:50:02.561Z,16.8
2017-12-20T07:51:02.587Z,16.8
2017-12-20T07:52:02.236Z,16.8
2017-12-20T07:53:02.459Z,16.8
2017-12-20T07:54:02.588Z,16.8
2017-12-20T07:55:02.506Z,16.9
2017-12-20T07:56:02.830Z,16.9
2017-12-20T07:57:02.382Z,16.9
2017-12-20T07:58:02.716Z,16.9
2017-12-20T07:59:02.564Z,16.9
2017-12-20T08:00:02.832Z,16.9
2017-12-20T08:01:02.813Z,16.9
2017-12-20T08:02:02.602Z,16.9
2017-12-20T08:03:02.418Z,16.9
2017-12-20T08:04:02.434Z,16.9
2017-12-20T08:05:02.577Z,16.9
2017-12-20T08:06:02.591Z,16.9
2017-12-20T08:07:02.656Z,16.9
2017-12-20T08:08:02.782Z,16.9
2017-12-20T08:09:02.871Z,16.9
2017-12-20T08:10:02.762Z,16.9
2017-12-20T08:11:02.547Z,16.9
2017-12-20T08:12:02.628Z,16.9
2017-12-20T08:13:02.589Z,16.9
2017-12-20T08:14:02.619Z,16.9
2017-12-20T08:15:02.992Z,16.9
2017-12-20T08:16:02.764Z,16.9
2017-12-20T08:17:02.626Z,16.9
2017-12-20T08:18:02.996Z,16.9
2017-12-20T08:19:02.922Z,16.9
2017-12-20T08:20:02.669Z,16.9
2017-12-20T08:21:02.587Z,16.9
2017-12-20T08:22:02.697Z,16.9
2017-12-20T08:23:02.629Z,16.9
2017-12-20T08:24:02.535Z,16.9
2017-12-20T08:25:02.419Z,16.9
2017-12-20T08:26:02.597Z,16.9
2017-12-20T08:27:02.540Z,16.9
2017-12-20T08:28:02.405Z,16.9
2017-12-20T08:29:02.219Z,16.9
2017-12-20T08:30:02.410Z,16.9
2017-12-20T08:31:02.611Z,16.9
2017-12-20T08:32:02.423Z,16.9
2017-12-20T08:33:02.842Z,16.9
2017-12-20T08:34:02.639Z,16.9
2017-12-20T08:35:02.590Z,17
2017-12-20T08:36:03.007Z,16.9
2017-12-20T08:37:02.631Z,17
2017-12-20T08:38:02.798Z,17
2017-12-20T08:39:02.280Z,17
2017-12-20T08:40:02.881Z,17
2017-12-20T08:41:02.757Z,17
2017-12-20T08:42:02.412Z,17
2017-12-20T08:43:02.576Z,17
2017-12-20T08:44:02.411Z,17
2017-12-20T08:45:02.896Z,17
2017-12-20T08:46:02.354Z,17
2017-12-20T08:47:02.603Z,17
2017-12-20T08:48:02.768Z,17
2017-12-20T08:49:02.390Z,17.1
2017-12-20T08:50:02.774Z,17.1
2017-12-20T08:51:02.848Z,17.1
2017-12-20T08:52:02.578Z,17.1
2017-12-20T08:53:23.466Z,17.1
2017-12-20T08:54:02.779Z,17.1
2017-12-20T08:55:02.587Z,17.1
2017-12-20T08:56:02.437Z,17.1
2017-12-20T08:57:03.021Z,17.1
2017-12-20T08:58:02.670Z,17.1
2017-12-20T08:59:02.608Z,17.1
2017-12-20T09:00:02.987Z,17.1
2017-12-20T09:01:02.801Z,17.1
2017-12-20T09:02:03.137Z,17.1
2017-12-20T09:03:02.642Z,17.1
2017-12-20T09:04:02.591Z,17.1
2017-12-20T09:05:02.758Z,17.1
2017-12-20T09:06:02.777Z,17.1
2017-12-20T09:07:02.824Z,17.1
2017-12-20T09:08:02.844Z,17.1
2017-12-20T09:09:02.670Z,17.1
2017-12-20T09:10:02.793Z,17.1
2017-12-20T09:11:02.564Z,17.2
2017-12-20T09:12:02.433Z,17.2
2017-12-20T09:13:02.601Z,17.2
2017-12-20T09:14:02.609Z,17.2
2017-12-20T09:15:02.600Z,17.2
2017-12-20T09:16:02.571Z,17.2
2017-12-20T09:17:02.830Z,17.2
2017-12-20T09:18:02.584Z,17.2
2017-12-20T09:19:02.427Z,17.1
2017-12-20T09:20:02.588Z,17.2
2017-12-20T09:21:02.433Z,17.2
2017-12-20T09:22:02.636Z,17.1
2017-12-20T09:23:02.580Z,17.2
2017-12-20T09:24:02.813Z,17.1
2017-12-20T09:25:02.850Z,17.1
2017-12-20T09:26:02.427Z,17.1
2017-12-20T09:27:03.019Z,17.1
2017-12-20T09:28:02.626Z,17.1
2017-12-20T09:29:02.675Z,17.1
2017-12-20T09:30:02.592Z,17.1
2017-12-20T09:31:02.989Z,17.1
2017-12-20T09:32:02.781Z,17.1
2017-12-20T09:33:03.010Z,17.1
2017-12-20T09:34:02.821Z,17.1
2017-12-20T09:35:02.632Z,17.1
2017-12-20T09:36:02.846Z,17.1
2017-12-20T09:37:02.606Z,17.1
2017-12-20T09:38:03.109Z,17.1
2017-12-20T09:39:02.771Z,17.1
2017-12-20T09:40:02.821Z,17.1
2017-12-20T09:41:02.641Z,17.1
2017-12-20T09:42:02.371Z,17.1
2017-12-20T09:43:02.848Z,17.1
2017-12-20T09:44:02.620Z,17.1
2017-12-20T09:45:02.843Z,17.1
2017-12-20T09:46:02.611Z,17.1
2017-12-20T09:47:02.619Z,17.1
2017-12-20T09:48:02.797Z,17.1
2017-12-20T09:49:02.582Z,17.1
2017-12-20T09:50:02.702Z,17.1
2017-12-20T09:51:02.773Z,17.1
2017-12-20T09:52:03.020Z,17.1
2017-12-20T09:53:02.620Z,17.1
2017-12-20T09:54:02.625Z,17.1
2017-12-20T09:55:02.746Z,17.2
2017-12-20T09:56:02.640Z,17.2
2017-12-20T09:57:02.814Z,17.1
2017-12-20T09:58:02.810Z,17.2
2017-12-20T09:59:02.875Z,17.2
2017-12-20T10:00:02.983Z,17.2
2017-12-20T10:01:02.815Z,17.2
2017-12-20T10:02:02.657Z,17.1
2017-12-20T10:03:02.457Z,17.1
2017-12-20T10:04:02.861Z,17.1
2017-12-20T10:05:02.607Z,17.1
2017-12-20T10:06:02.848Z,17.1
2017-12-20T10:07:02.648Z,17.1
2017-12-20T10:08:02.638Z,17.1
2017-12-20T10:09:02.818Z,17.1
2017-12-20T10:10:03.068Z,17.1
2017-12-20T10:11:02.480Z,17.1
2017-12-20T10:12:02.660Z,17.1
2017-12-20T10:13:02.849Z,17.1
2017-12-20T10:14:02.463Z,17.1
2017-12-20T10:15:02.689Z,17.1
2017-12-20T10:16:03.108Z,17.2
2017-12-20T10:17:03.016Z,17.2
2017-12-20T10:18:02.645Z,17.2
2017-12-20T10:19:02.264Z,17.2
2017-12-20T10:20:02.637Z,17.2
2017-12-20T10:21:02.549Z,17.2
2017-12-20T10:22:02.852Z,17.2
2017-12-20T10:23:02.910Z,17.2
2017-12-20T10:24:02.844Z,17.2
2017-12-20T10:25:02.803Z,17.2
2017-12-20T10:26:03.080Z,17.2
2017-12-20T10:27:02.664Z,17.2
2017-12-20T10:28:02.633Z,17.2
2017-12-20T10:29:02.854Z,17.2
2017-12-20T10:30:03.052Z,17.2
2017-12-20T10:31:02.549Z,17.2
2017-12-20T10:32:02.143Z,17.2
2017-12-20T10:33:02.815Z,17.2
2017-12-20T10:34:02.430Z,17.2
2017-12-20T10:35:02.435Z,17.2
2017-12-20T10:36:02.498Z,17.2
2017-12-20T10:37:02.433Z,17.2
2017-12-20T10:38:02.436Z,17.2
2017-12-20T10:39:02.452Z,17.2
2017-12-20T10:40:02.460Z,17.2
2017-12-20T10:41:02.486Z,17.2
2017-12-20T10:42:02.463Z,17.2
2017-12-20T10:43:02.419Z,17.2
2017-12-20T10:44:02.272Z,17.2
2017-12-20T10:45:02.237Z,17.2
2017-12-20T10:46:02.465Z,17.2
2017-12-20T10:47:02.947Z,17.2
2017-12-20T10:48:02.639Z,17.2
2017-12-20T10:49:02.476Z,17.2
2017-12-20T10:50:02.243Z,17.2
2017-12-20T10:51:21.266Z,17.5
2017-12-20T10:51:28.982Z,17.6
2017-12-20T10:51:53.812Z,17.6
2017-12-20T10:52:51.850Z,17.6
2017-12-20T10:53:51.827Z,17.7
2017-12-20T10:54:51.784Z,17.7
2017-12-20T10:55:51.817Z,17.8
2017-12-20T10:56:51.818Z,17.8
2017-12-20T10:57:52.418Z,17.8
2017-12-20T10:58:51.770Z,17.8
2017-12-20T10:59:52.036Z,17.8
2017-12-20T11:00:52.187Z,17.8
2017-12-20T11:01:51.988Z,17.8
2017-12-20T11:02:52.220Z,17.8
2017-12-20T11:03:26.397Z,17.8
2017-12-20T11:04:25.338Z,17.8
2017-12-20T11:05:25.150Z,17.8
2017-12-20T11:06:25.148Z,17.8
2017-12-20T11:07:25.105Z,17.8
2017-12-20T11:08:24.908Z,17.8
2017-12-20T11:09:24.893Z,17.8
2017-12-20T11:10:25.354Z,17.8
2017-12-20T11:11:25.552Z,17.8
2017-12-20T11:12:25.099Z,17.8
2017-12-20T11:13:25.146Z,17.8
2017-12-20T11:14:25.121Z,17.8
2017-12-20T11:15:25.357Z,17.8
2017-12-20T11:16:25.120Z,17.8
2017-12-20T11:17:25.095Z,17.7
2017-12-20T11:18:24.898Z,17.7
2017-12-20T11:19:24.924Z,17.7
2017-12-20T11:20:25.339Z,17.7
2017-12-20T11:21:25.313Z,17.7
2017-12-20T11:22:24.932Z,17.7
2017-12-20T11:23:25.095Z,17.7
2017-12-20T11:24:24.911Z,17.7
2017-12-20T11:25:24.954Z,17.7
2017-12-20T11:26:25.156Z,17.7
2017-12-20T11:27:25.140Z,17.7
2017-12-20T11:28:25.144Z,17.7
2017-12-20T11:29:25.144Z,17.7
2017-12-20T11:30:25.349Z,17.7
2017-12-20T11:31:25.180Z,17.7
2017-12-20T11:32:25.085Z,17.7
2017-12-20T11:33:25.105Z,17.7
2017-12-20T11:34:24.899Z,17.7
2017-12-20T11:35:25.202Z,17.7
2017-12-20T11:36:24.951Z,17.7
2017-12-20T11:37:25.357Z,17.7
2017-12-20T11:38:25.117Z,17.7
2017-12-20T11:39:24.972Z,17.7
2017-12-20T11:40:24.949Z,17.7
2017-12-20T11:41:25.167Z,17.7
2017-12-20T11:42:25.124Z,17.7
2017-12-20T11:43:25.379Z,17.6
2017-12-20T11:44:25.306Z,17.6
2017-12-20T11:45:25.144Z,17.7
2017-12-20T11:46:24.963Z,17.6
2017-12-20T11:47:25.152Z,17.6
2017-12-20T11:48:25.514Z,17.6
2017-12-20T11:49:24.983Z,17.6
2017-12-20T11:50:25.116Z,17.6
2017-12-20T11:51:25.714Z,17.6
2017-12-20T11:52:25.353Z,17.6
2017-12-20T11:53:25.330Z,17.6
2017-12-20T11:54:25.181Z,17.6
2017-12-20T11:55:25.007Z,17.6
2017-12-20T11:56:25.348Z,17.6
2017-12-20T11:57:25.820Z,17.6
2017-12-20T11:58:25.136Z,17.6
2017-12-20T11:59:25.529Z,17.6
2017-12-20T12:00:25.169Z,17.6
2017-12-20T12:01:25.169Z,17.6
2017-12-20T12:02:25.407Z,17.6
2017-12-20T12:03:25.387Z,17.6
2017-12-20T12:04:25.176Z,17.6
2017-12-20T12:05:25.513Z,17.6
2017-12-20T12:06:25.230Z,17.6
2017-12-20T12:07:25.364Z,17.6
2017-12-20T12:08:25.593Z,17.6
2017-12-20T12:09:25.722Z,17.6
2017-12-20T12:10:25.360Z,17.6
2017-12-20T12:11:25.410Z,17.6
2017-12-20T12:12:24.975Z,17.6
2017-12-20T12:13:25.198Z,17.6
2017-12-20T12:14:25.379Z,17.6
2017-12-20T12:15:25.814Z,17.6
2017-12-20T12:16:25.699Z,17.6
2017-12-20T12:17:25.552Z,17.6
2017-12-20T12:18:25.317Z,17.6
2017-12-20T12:19:25.795Z,17.6
2017-12-20T12:20:25.183Z,17.6
2017-12-20T12:21:25.360Z,17.6
2017-12-20T12:22:25.252Z,17.6
2017-12-20T12:23:25.177Z,17.6
2017-12-20T12:24:25.560Z,17.6
2017-12-20T12:25:25.180Z,17.6
2017-12-20T12:26:24.978Z,17.6
2017-12-20T12:27:25.633Z,17.6
2017-12-20T12:28:25.578Z,17.6
2017-12-20T12:29:25.371Z,17.6
2017-12-20T12:30:25.328Z,17.6
2017-12-20T12:31:25.000Z,17.6
2017-12-20T12:32:25.015Z,17.6
2017-12-20T12:33:25.752Z,17.6
2017-12-20T12:34:25.541Z,17.6
2017-12-20T12:35:25.167Z,17.6
2017-12-20T12:36:25.319Z,17.6
2017-12-20T12:37:25.192Z,17.6
2017-12-20T12:38:25.198Z,17.6
2017-12-20T12:39:25.355Z,17.6
2017-12-20T12:40:25.348Z,17.6
2017-12-20T12:41:25.113Z,17.6
2017-12-20T12:42:25.181Z,17.6
2017-12-20T12:43:25.200Z,17.6
2017-12-20T12:44:25.139Z,17.6
2017-12-20T12:45:25.161Z,17.6
2017-12-20T12:46:25.380Z,17.6
2017-12-20T12:47:25.388Z,17.6
2017-12-20T12:48:25.354Z,17.6
2017-12-20T12:49:25.351Z,17.6
2017-12-20T12:50:25.799Z,17.6
2017-12-20T12:51:25.181Z,17.6
2017-12-20T12:52:25.219Z,17.6
2017-12-20T12:53:25.196Z,17.6
2017-12-20T12:54:24.978Z,17.6
2017-12-20T12:55:25.221Z,17.6
2017-12-20T12:56:25.144Z,17.6
2017-12-20T12:57:24.977Z,17.6
2017-12-20T12:58:24.974Z,17.6
2017-12-20T12:59:25.184Z,17.6
2017-12-20T13:00:25.184Z,17.6
2017-12-20T13:01:25.387Z,17.6
2017-12-20T13:02:25.007Z,17.6
2017-12-20T13:03:25.347Z,17.6
2017-12-20T13:04:24.962Z,17.6
2017-12-20T13:05:25.476Z,17.6
2017-12-20T13:06:25.620Z,17.6
2017-12-20T13:07:25.371Z,17.6
2017-12-20T13:08:25.308Z,17.6
2017-12-20T13:09:25.178Z,17.6
2017-12-20T13:10:25.431Z,17.6
2017-12-20T13:11:24.995Z,17.6
2017-12-20T13:12:25.407Z,17.6
2017-12-20T13:13:25.260Z,17.6
2017-12-20T13:14:25.140Z,17.6
2017-12-20T13:15:25.368Z,17.6
2017-12-20T13:16:24.992Z,17.6
2017-12-20T13:17:25.375Z,17.6
2017-12-20T13:18:25.469Z,17.6